Time;durP1;ratioP1;P1;durP2;ratioP2;P2;SDS_P1;SDS_P2;PMS_P1;PMS_P2;Temp;Humidity;BMP_temperature;BMP_pressure;BME280_temperature;BME280_humidity;BME280_pressure;Samples;Min_cycle;Max_cycle;Signal;HPM_P1;HPM_P2
2022/08/16 00:02:24;;;;;;;29.30;26.63;;;21.60;99.90;;;;;;5052902;28;20446;-73
2022/08/16 00:04:51;;;;;;;30.40;27.27;;;21.60;99.90;;;;;;5053337;28;20477;-73
2022/08/16 00:07:18;;;;;;;25.90;23.40;;;21.50;99.90;;;;;;5060786;28;20643;-73
2022/08/16 00:09:45;;;;;;;35.10;31.47;;;21.50;99.90;;;;;;5042996;28;20572;-73
2022/08/16 00:12:13;;;;;;;26.57;23.97;;;21.50;99.90;;;;;;5046611;28;20457;-73
2022/08/16 00:14:40;;;;;;;30.37;27.47;;;21.50;99.90;;;;;;5048829;28;20468;-72
2022/08/16 00:17:07;;;;;;;27.93;25.33;;;21.50;99.90;;;;;;5049337;28;20816;-72
2022/08/16 00:19:35;;;;;;;35.93;29.20;;;21.50;99.90;;;;;;5048513;28;20460;-72
2022/08/16 00:22:02;;;;;;;29.47;26.47;;;21.50;99.90;;;;;;5047562;28;20529;-73
2022/08/16 00:24:30;;;;;;;28.40;25.53;;;21.50;99.90;;;;;;5049456;28;20508;-73
2022/08/16 00:27:01;;;;;;;27.43;24.83;;;21.40;99.90;;;;;;5046398;28;21019;-71
2022/08/16 00:29:30;;;;;;;26.43;24.03;;;21.40;99.90;;;;;;5035028;28;21583;-74
2022/08/16 00:31:57;;;;;;;23.10;20.63;;;21.30;99.90;;;;;;5039301;28;20569;-73
2022/08/16 00:34:24;;;;;;;24.40;22.00;;;21.40;99.90;;;;;;5045291;28;20477;-74
2022/08/16 00:36:51;;;;;;;24.20;21.87;;;21.30;99.90;;;;;;5060495;28;20873;-73
2022/08/16 00:39:19;;;;;;;21.20;19.30;;;21.30;99.90;;;;;;5045787;28;20472;-74
2022/08/16 00:41:48;;;;;;;23.53;21.43;;;21.40;99.90;;;;;;5051215;28;20440;-74
2022/08/16 00:44:17;;;;;;;24.33;21.83;;;21.40;99.90;;;;;;5053276;28;20540;-73
2022/08/16 00:46:53;;;;;;;24.40;21.83;;;21.30;99.90;;;;;;5047517;28;20512;-72
2022/08/16 00:49:20;;;;;;;22.97;20.60;;;21.30;99.90;;;;;;5055213;28;20448;-72
2022/08/16 00:51:48;;;;;;;24.37;21.97;;;21.30;99.90;;;;;;5037942;28;20487;-73
2022/08/16 00:54:15;;;;;;;24.20;21.87;;;21.30;99.90;;;;;;5056068;28;20487;-73
2022/08/16 00:56:45;;;;;;;23.80;21.57;;;21.30;99.90;;;;;;5045214;28;20452;-72
2022/08/16 00:59:13;;;;;;;23.07;20.87;;;21.30;99.90;;;;;;5054761;28;20456;-73
2022/08/16 01:01:41;;;;;;;24.43;21.87;;;21.30;99.90;;;;;;5050489;28;20437;-73
2022/08/16 01:04:10;;;;;;;22.27;20.07;;;21.30;99.90;;;;;;5056637;28;20510;-72
2022/08/16 01:06:38;;;;;;;20.73;18.60;;;21.30;99.90;;;;;;5055784;28;20558;-73
2022/08/16 01:09:06;;;;;;;20.13;18.33;;;21.40;99.90;;;;;;5045044;28;20441;-73
2022/08/16 01:11:37;;;;;;;21.83;19.83;;;21.40;99.90;;;;;;5055635;28;20833;-73
2022/08/16 01:14:09;;;;;;;23.80;21.63;;;21.40;99.90;;;;;;5046226;28;20577;-74
2022/08/16 01:16:37;;;;;;;21.40;19.27;;;21.40;99.90;;;;;;5053263;28;20560;-73
2022/08/16 01:19:16;;;;;;;22.50;20.10;;;21.40;99.90;;;;;;5049633;28;20537;-73
2022/08/16 01:21:49;;;;;;;21.03;18.20;;;21.40;99.90;;;;;;5049118;28;20476;-73
2022/08/16 01:24:26;;;;;;;21.90;19.67;;;21.40;99.90;;;;;;5063049;28;20767;-72
2022/08/16 01:27:01;;;;;;;20.83;19.00;;;21.40;99.90;;;;;;5060593;28;20474;-73
2022/08/16 01:29:33;;;;;;;23.30;21.20;;;21.40;99.90;;;;;;5053056;28;20862;-73
2022/08/16 01:32:01;;;;;;;21.77;19.70;;;21.30;99.90;;;;;;5064008;28;20468;-72
2022/08/16 01:34:28;;;;;;;21.70;19.60;;;21.30;99.90;;;;;;5051516;28;20466;-73
2022/08/16 01:37:04;;;;;;;23.53;21.13;;;21.20;99.90;;;;;;5038525;28;20560;-71
2022/08/16 01:39:32;;;;;;;21.90;19.87;;;21.20;99.90;;;;;;5039543;28;20800;-71
2022/08/16 01:42:00;;;;;;;19.63;17.73;;;21.20;99.90;;;;;;5047128;28;20529;-72
2022/08/16 01:44:27;;;;;;;19.93;18.00;;;21.20;99.90;;;;;;5054150;28;20466;-72
2022/08/16 01:46:56;;;;;;;21.40;19.40;;;21.20;99.90;;;;;;5057575;28;20452;-72
2022/08/16 01:49:25;;;;;;;21.83;18.10;;;21.10;99.90;;;;;;5042727;28;20458;-72
2022/08/16 01:51:56;;;;;;;23.03;20.10;;;21.20;99.90;;;;;;5052581;28;20519;-72
2022/08/16 01:54:23;;;;;;;22.93;20.83;;;21.10;99.90;;;;;;5053131;28;20467;-72
2022/08/16 01:56:51;;;;;;;24.47;22.20;;;21.20;99.90;;;;;;5062096;28;20453;-72
2022/08/16 01:59:19;;;;;;;23.60;21.30;;;21.20;99.90;;;;;;5057423;28;20459;-73
2022/08/16 02:01:49;;;;;;;24.47;22.17;;;21.20;99.90;;;;;;5060946;28;20790;-71
2022/08/16 02:04:16;;;;;;;22.77;20.67;;;21.20;99.90;;;;;;5056965;28;20468;-71
2022/08/16 02:06:43;;;;;;;25.57;23.17;;;21.20;99.90;;;;;;5062184;28;20964;-71
2022/08/16 02:09:12;;;;;;;22.80;20.50;;;21.20;99.90;;;;;;5052249;28;20806;-73
2022/08/16 02:11:40;;;;;;;25.40;22.13;;;21.20;99.90;;;;;;5045148;28;20475;-72
2022/08/16 02:14:09;;;;;;;25.63;21.90;;;21.30;99.90;;;;;;5046748;28;20501;-73
2022/08/16 02:16:36;;;;;;;23.40;21.20;;;21.30;99.90;;;;;;5064128;28;20526;-72
2022/08/16 02:19:03;;;;;;;25.93;22.20;;;21.30;99.90;;;;;;5066550;28;20447;-72
2022/08/16 02:21:32;;;;;;;25.30;22.80;;;21.30;99.90;;;;;;5056035;28;20438;-71
2022/08/16 02:23:59;;;;;;;24.73;22.10;;;21.30;99.90;;;;;;5062151;28;20479;-71
2022/08/16 02:26:26;;;;;;;25.63;23.27;;;21.30;99.90;;;;;;5055881;28;20456;-72
2022/08/16 02:28:53;;;;;;;24.80;22.50;;;21.30;99.90;;;;;;5054382;28;20516;-73
2022/08/16 02:31:21;;;;;;;25.17;22.80;;;21.30;99.90;;;;;;5055628;28;21015;-72
2022/08/16 02:33:48;;;;;;;24.10;21.70;;;21.40;99.90;;;;;;5052027;28;20576;-72
2022/08/16 02:36:16;;;;;;;22.93;20.60;;;21.40;99.90;;;;;;5044652;28;20861;-71
2022/08/16 02:38:43;;;;;;;24.23;21.90;;;21.40;99.90;;;;;;5053908;28;21016;-71
2022/08/16 02:41:10;;;;;;;23.33;21.03;;;21.50;99.90;;;;;;5051296;28;20476;-71
2022/08/16 02:43:37;;;;;;;24.10;21.80;;;21.40;99.90;;;;;;5061514;28;20463;-72
2022/08/16 02:46:06;;;;;;;24.97;22.57;;;21.40;99.90;;;;;;5055263;28;20540;-72
2022/08/16 02:48:37;;;;;;;22.47;20.27;;;21.40;99.90;;;;;;5053054;28;20453;-73
2022/08/16 02:51:05;;;;;;;22.80;20.70;;;21.40;99.90;;;;;;5053939;28;20477;-73
2022/08/16 02:53:33;;;;;;;24.40;22.10;;;21.40;99.90;;;;;;5052491;28;20531;-73
2022/08/16 02:56:00;;;;;;;24.93;22.60;;;21.40;99.90;;;;;;5060700;28;20484;-73
2022/08/16 02:58:27;;;;;;;21.30;19.20;;;21.40;99.90;;;;;;5062772;28;20551;-73
2022/08/16 03:00:56;;;;;;;24.47;22.13;;;21.40;99.90;;;;;;5056296;28;20540;-74
2022/08/16 03:03:23;;;;;;;31.23;24.60;;;21.40;99.90;;;;;;5060171;28;20606;-73
2022/08/16 03:05:52;;;;;;;28.00;25.40;;;21.30;99.90;;;;;;5044164;28;20455;-73
2022/08/16 03:08:19;;;;;;;26.70;24.10;;;21.30;99.90;;;;;;5050003;28;20827;-73
2022/08/16 03:10:48;;;;;;;26.20;23.57;;;21.30;99.90;;;;;;5046834;28;20440;-73
2022/08/16 03:13:15;;;;;;;23.10;21.00;;;21.30;99.90;;;;;;5056368;28;20835;-73
2022/08/16 03:15:42;;;;;;;24.20;22.00;;;21.30;99.90;;;;;;5048211;28;20457;-73
2022/08/16 03:18:09;;;;;;;29.13;26.33;;;21.30;99.90;;;;;;5048782;28;20453;-73
2022/08/16 03:20:37;;;;;;;26.60;23.97;;;21.30;99.90;;;;;;5058037;28;21032;-72
2022/08/16 03:23:07;;;;;;;25.40;22.97;;;21.20;99.90;;;;;;5051364;28;20467;-74
2022/08/16 03:25:35;;;;;;;28.40;25.30;;;21.20;99.90;;;;;;5063511;28;20476;-72
2022/08/16 03:28:03;;;;;;;26.43;23.93;;;21.30;99.90;;;;;;5060382;28;20476;-72
2022/08/16 03:30:33;;;;;;;27.63;25.10;;;21.30;99.90;;;;;;5055808;28;20518;-72
2022/08/16 03:33:02;;;;;;;30.63;27.80;;;21.30;99.90;;;;;;5046700;28;20580;-72
2022/08/16 03:35:32;;;;;;;31.07;27.93;;;21.20;99.90;;;;;;5050997;28;20947;-72
2022/08/16 03:38:02;;;;;;;29.70;26.93;;;21.10;99.90;;;;;;5043294;28;20508;-74
2022/08/16 03:40:31;;;;;;;25.87;23.33;;;21.10;99.90;;;;;;5057814;28;20442;-72
2022/08/16 03:42:58;;;;;;;28.27;25.57;;;21.10;99.90;;;;;;5055120;28;20500;-74
2022/08/16 03:45:25;;;;;;;28.10;25.37;;;21.10;99.90;;;;;;5053976;28;20469;-73
2022/08/16 03:47:52;;;;;;;27.60;24.83;;;21.10;99.90;;;;;;5060196;28;20490;-73
2022/08/16 03:50:20;;;;;;;24.93;22.73;;;21.10;99.90;;;;;;5049471;28;20556;-73
2022/08/16 03:52:48;;;;;;;25.97;23.57;;;21.10;99.90;;;;;;5060510;28;20487;-73
2022/08/16 03:55:15;;;;;;;30.30;27.17;;;21.00;99.90;;;;;;5040689;28;20478;-73
2022/08/16 03:57:44;;;;;;;28.47;25.90;;;21.00;99.90;;;;;;5034353;28;20501;-73
2022/08/16 04:00:16;;;;;;;27.33;24.83;;;20.90;99.90;;;;;;5046926;28;20555;-73
2022/08/16 04:02:44;;;;;;;26.93;24.43;;;20.90;99.90;;;;;;5034310;28;20514;-72
2022/08/16 04:05:12;;;;;;;27.13;24.40;;;20.80;99.90;;;;;;5050691;28;20448;-73
2022/08/16 04:07:40;;;;;;;25.00;22.77;;;20.80;99.90;;;;;;5055022;28;20539;-72
2022/08/16 04:10:09;;;;;;;29.10;26.00;;;20.90;99.90;;;;;;5061968;28;20472;-72
2022/08/16 04:12:36;;;;;;;29.77;26.93;;;20.90;99.90;;;;;;5060009;28;20915;-71
2022/08/16 04:15:07;;;;;;;26.53;23.93;;;20.90;99.90;;;;;;5067675;28;20455;-74
2022/08/16 04:17:34;;;;;;;27.27;24.67;;;20.90;99.90;;;;;;5050526;28;20490;-72
2022/08/16 04:20:02;;;;;;;26.93;24.33;;;20.90;99.90;;;;;;5060271;28;20446;-72
2022/08/16 04:22:29;;;;;;;27.97;24.83;;;20.90;99.90;;;;;;5052606;28;20446;-74
2022/08/16 04:24:56;;;;;;;26.63;24.20;;;21.10;99.90;;;;;;5070300;28;20481;-74
2022/08/16 04:27:23;;;;;;;29.37;26.10;;;21.10;99.90;;;;;;5063708;28;20922;-73
2022/08/16 04:29:50;;;;;;;29.73;26.60;;;21.10;99.90;;;;;;5054419;28;20445;-73
2022/08/16 04:32:19;;;;;;;26.60;24.00;;;21.10;99.90;;;;;;5061182;28;20478;-73
2022/08/16 04:34:46;;;;;;;28.77;25.87;;;21.10;99.90;;;;;;5060124;28;20831;-73
2022/08/16 04:37:13;;;;;;;27.87;25.03;;;21.10;99.90;;;;;;5045129;28;20521;-73
2022/08/16 04:39:40;;;;;;;25.53;23.17;;;21.20;99.90;;;;;;5045527;28;20529;-72
2022/08/16 04:42:07;;;;;;;31.10;27.90;;;21.30;99.90;;;;;;5038468;28;20946;-72
2022/08/16 04:44:34;;;;;;;27.93;25.33;;;21.30;99.90;;;;;;5050412;28;20931;-72
2022/08/16 04:47:01;;;;;;;30.73;27.67;;;21.40;99.90;;;;;;5055512;28;20450;-73
2022/08/16 04:49:31;;;;;;;28.00;25.27;;;21.40;99.90;;;;;;5057953;28;20445;-73
2022/08/16 04:51:57;;;;;;;27.87;25.00;;;21.40;99.90;;;;;;5056169;28;20475;-73
2022/08/16 04:54:24;;;;;;;28.70;26.00;;;21.40;99.90;;;;;;5059371;28;20575;-72
2022/08/16 04:56:51;;;;;;;29.53;26.70;;;21.40;99.90;;;;;;5056852;28;20450;-72
2022/08/16 04:59:18;;;;;;;30.97;27.67;;;21.40;99.90;;;;;;5047464;28;20928;-72
2022/08/16 05:01:45;;;;;;;32.63;29.37;;;21.40;99.90;;;;;;5066568;28;20452;-74
2022/08/16 05:04:13;;;;;;;31.70;28.57;;;21.40;99.90;;;;;;5059388;28;20545;-73
2022/08/16 05:06:42;;;;;;;34.07;27.20;;;21.30;99.90;;;;;;5055381;28;20478;-73
2022/08/16 05:09:09;;;;;;;29.07;26.30;;;21.30;99.90;;;;;;5052633;28;20445;-73
2022/08/16 05:11:36;;;;;;;28.73;25.67;;;21.30;99.90;;;;;;5055099;28;20484;-71
2022/08/16 05:14:03;;;;;;;26.67;23.83;;;21.30;99.90;;;;;;5064226;28;20475;-72
2022/08/16 05:16:31;;;;;;;26.40;23.93;;;21.40;99.90;;;;;;5055179;28;20909;-71
2022/08/16 05:19:00;;;;;;;25.93;23.10;;;21.50;99.90;;;;;;5065661;28;20449;-72
2022/08/16 05:21:30;;;;;;;26.80;24.40;;;21.80;99.90;;;;;;5041601;28;20460;-71
2022/08/16 05:23:58;;;;;;;23.87;21.70;;;22.10;99.90;;;;;;5054365;28;20495;-73
2022/08/16 05:26:29;;;;;;;22.80;20.60;;;22.20;99.90;;;;;;5054210;28;20538;-71
2022/08/16 05:28:57;;;;;;;26.33;23.70;;;22.30;99.90;;;;;;5056155;28;20446;-73
2022/08/16 05:31:30;;;;;;;27.13;24.50;;;22.30;99.90;;;;;;5053438;28;20484;-72
2022/08/16 05:33:58;;;;;;;23.57;21.33;;;22.30;99.90;;;;;;5049553;28;20553;-72
2022/08/16 05:36:26;;;;;;;28.10;25.27;;;22.20;99.90;;;;;;5053917;28;20544;-72
2022/08/16 05:38:55;;;;;;;26.00;23.60;;;22.20;99.90;;;;;;5050826;28;20449;-72
2022/08/16 05:41:24;;;;;;;24.90;22.50;;;22.20;99.90;;;;;;5055793;28;20477;-71
2022/08/16 05:43:51;;;;;;;26.60;24.07;;;22.20;99.90;;;;;;5043466;28;20505;-71
2022/08/16 05:46:18;;;;;;;27.37;24.70;;;22.30;99.90;;;;;;5035800;28;20905;-74
2022/08/16 05:48:46;;;;;;;22.27;20.00;;;22.40;99.90;;;;;;5033404;28;20597;-72
2022/08/16 05:51:14;;;;;;;23.50;21.20;;;22.50;99.90;;;;;;5053393;28;20939;-72
2022/08/16 05:53:42;;;;;;;26.07;23.63;;;22.70;99.90;;;;;;5055233;28;20917;-73
2022/08/16 05:56:10;;;;;;;23.43;20.30;;;22.70;99.90;;;;;;5057271;28;20459;-73
2022/08/16 05:58:38;;;;;;;24.43;21.23;;;22.90;99.90;;;;;;5047484;28;20449;-71
2022/08/16 06:01:06;;;;;;;23.80;21.20;;;23.10;99.90;;;;;;5040208;28;20529;-72
2022/08/16 06:03:33;;;;;;;21.90;19.70;;;23.40;99.90;;;;;;5051352;28;20961;-71
2022/08/16 06:06:00;;;;;;;24.50;22.00;;;23.40;99.90;;;;;;5045428;28;20443;-72
2022/08/16 06:08:27;;;;;;;21.97;19.77;;;23.60;99.90;;;;;;5052020;28;20475;-73
2022/08/16 06:10:59;;;;;;;22.73;20.40;;;23.90;99.90;;;;;;5044817;28;20864;-73
2022/08/16 06:13:26;;;;;;;24.27;20.83;;;24.10;99.90;;;;;;5038963;28;20483;-73
2022/08/16 06:15:56;;;;;;;22.63;20.43;;;24.40;99.90;;;;;;5054195;28;20540;-73
2022/08/16 06:18:23;;;;;;;19.27;17.47;;;24.40;99.90;;;;;;5041009;28;20917;-74
2022/08/16 06:20:51;;;;;;;21.77;19.70;;;24.60;99.90;;;;;;5055311;28;20858;-74
2022/08/16 06:23:18;;;;;;;20.70;18.70;;;24.80;99.90;;;;;;5052335;28;20455;-73
2022/08/16 06:25:46;;;;;;;21.67;19.57;;;25.00;99.90;;;;;;5041818;28;20456;-74
2022/08/16 06:28:14;;;;;;;20.07;18.07;;;25.20;99.90;;;;;;5045720;28;20456;-74
2022/08/16 06:30:41;;;;;;;21.97;19.73;;;25.30;99.90;;;;;;5045741;28;20455;-75
2022/08/16 06:33:12;;;;;;;20.90;19.10;;;25.30;99.90;;;;;;5061175;28;20584;-70
2022/08/16 06:35:40;;;;;;;21.63;19.43;;;25.20;99.90;;;;;;5050323;28;20433;-71
2022/08/16 06:38:09;;;;;;;18.63;17.00;;;25.20;99.90;;;;;;5058734;28;20433;-73
2022/08/16 06:40:36;;;;;;;18.20;15.30;;;25.40;99.90;;;;;;5039917;28;20535;-69
2022/08/16 06:43:03;;;;;;;20.17;18.10;;;25.90;99.90;;;;;;5042093;28;20898;-70
2022/08/16 06:45:30;;;;;;;19.30;17.30;;;26.70;99.90;;;;;;5049357;28;20581;-74
2022/08/16 06:47:57;;;;;;;19.97;18.00;;;27.70;99.90;;;;;;5044181;28;20534;-72
2022/08/16 06:50:26;;;;;;;21.87;17.40;;;27.60;99.90;;;;;;5036660;28;20454;-73
2022/08/16 06:52:52;;;;;;;18.90;17.10;;;28.10;99.90;;;;;;5055115;28;20944;-74
2022/08/16 06:55:20;;;;;;;20.10;18.20;;;28.60;99.90;;;;;;5057459;28;20449;-74
2022/08/16 06:57:46;;;;;;;23.20;17.57;;;28.40;99.90;;;;;;5052937;28;20848;-74
2022/08/16 07:00:17;;;;;;;17.93;15.97;;;28.10;99.90;;;;;;5054217;28;20480;-75
2022/08/16 07:02:45;;;;;;;18.70;16.97;;;28.20;99.90;;;;;;5060903;28;20468;-74
2022/08/16 07:05:14;;;;;;;16.00;14.60;;;28.00;99.90;;;;;;5069667;28;20810;-74
2022/08/16 07:07:45;;;;;;;18.17;16.40;;;28.30;99.90;;;;;;5049468;28;20445;-75
2022/08/16 07:10:12;;;;;;;16.80;15.17;;;28.60;99.90;;;;;;5055387;28;20455;-73
2022/08/16 07:12:39;;;;;;;16.53;14.93;;;28.10;99.90;;;;;;5054600;28;20492;-76
2022/08/16 07:15:08;;;;;;;17.63;15.87;;;27.90;99.90;;;;;;5040774;28;21011;-73
2022/08/16 07:17:36;;;;;;;17.73;16.00;;;27.70;99.90;;;;;;5043741;28;20950;-75
2022/08/16 07:20:05;;;;;;;16.70;15.23;;;27.50;99.90;;;;;;5040894;28;20443;-73
2022/08/16 07:22:32;;;;;;;18.27;16.00;;;27.40;99.90;;;;;;5064619;28;20454;-73
2022/08/16 07:25:01;;;;;;;15.43;14.13;;;27.20;99.90;;;;;;5051172;28;20554;-73
2022/08/16 07:27:28;;;;;;;16.27;14.40;;;27.40;99.90;;;;;;5051271;28;20469;-74
2022/08/16 07:29:55;;;;;;;17.23;14.43;;;27.50;99.90;;;;;;5054234;28;20443;-73
2022/08/16 07:32:21;;;;;;;16.43;14.60;;;27.50;99.90;;;;;;5061729;28;20485;-70
2022/08/16 07:34:49;;;;;;;13.50;12.30;;;27.30;99.90;;;;;;5057321;28;20462;-73
2022/08/16 07:37:16;;;;;;;16.80;15.23;;;27.40;99.90;;;;;;5066574;28;20452;-72
2022/08/16 07:39:44;;;;;;;14.90;12.37;;;27.10;99.90;;;;;;5040773;28;20473;-73
2022/08/16 07:42:12;;;;;;;14.63;13.33;;;27.00;99.90;;;;;;5057273;28;20441;-72
2022/08/16 07:44:39;;;;;;;13.57;12.37;;;26.80;99.90;;;;;;5046846;28;20544;-72
2022/08/16 07:47:06;;;;;;;14.20;12.90;;;26.80;99.90;;;;;;5039709;28;20965;-73
2022/08/16 07:49:33;;;;;;;13.07;11.73;;;26.90;99.90;;;;;;5058841;28;20462;-72
2022/08/16 07:52:00;;;;;;;10.93;10.03;;;27.00;99.90;;;;;;5048260;28;20501;-73
2022/08/16 07:54:28;;;;;;;10.50;9.40;;;27.60;99.90;;;;;;5041726;28;20499;-72
2022/08/16 07:56:54;;;;;;;10.60;9.50;;;28.30;99.90;;;;;;5045360;28;20479;-71
2022/08/16 07:59:24;;;;;;;11.37;10.00;;;28.90;99.90;;;;;;5041905;28;20506;-75
2022/08/16 08:01:52;;;;;;;11.00;8.33;;;29.70;97.90;;;;;;5061215;28;20426;-74
2022/08/16 08:04:22;;;;;;;9.43;8.60;;;29.80;96.80;;;;;;5042070;28;20463;-74
2022/08/16 08:06:50;;;;;;;12.63;11.33;;;29.90;96.50;;;;;;5062870;28;21007;-74
2022/08/16 08:09:17;;;;;;;11.57;10.10;;;29.70;96.70;;;;;;5058247;28;20455;-75
2022/08/16 08:11:45;;;;;;;12.40;10.40;;;29.50;96.90;;;;;;5053748;28;20545;-74
2022/08/16 08:14:14;;;;;;;12.67;11.60;;;29.50;97.20;;;;;;5049085;28;20487;-73
2022/08/16 08:16:43;;;;;;;12.97;11.67;;;29.30;96.70;;;;;;5051857;28;20490;-73
2022/08/16 08:19:11;;;;;;;13.90;10.20;;;29.20;97.10;;;;;;5061455;28;20537;-72
2022/08/16 08:21:39;;;;;;;11.87;10.40;;;29.60;96.50;;;;;;5058940;28;20537;-74
2022/08/16 08:24:08;;;;;;;19.03;13.13;;;30.60;95.40;;;;;;5046432;28;20475;-72
2022/08/16 08:26:36;;;;;;;11.90;10.90;;;30.90;92.90;;;;;;5057126;28;20536;-72
2022/08/16 08:29:05;;;;;;;19.43;11.73;;;30.90;93.40;;;;;;5037663;28;20533;-74
2022/08/16 08:31:35;;;;;;;13.43;10.70;;;30.70;92.90;;;;;;5049895;28;20520;-75
2022/08/16 08:34:04;;;;;;;15.17;13.77;;;30.50;93.40;;;;;;5040295;28;20493;-75
2022/08/16 08:36:34;;;;;;;13.67;12.43;;;29.80;93.40;;;;;;5048388;28;20450;-74
2022/08/16 08:39:02;;;;;;;13.20;11.90;;;29.70;94.00;;;;;;5038732;28;20546;-73
2022/08/16 08:41:30;;;;;;;14.13;12.70;;;29.60;94.60;;;;;;5039175;28;20812;-74
2022/08/16 08:43:57;;;;;;;15.63;12.03;;;29.40;95.10;;;;;;5039648;28;20471;-73
2022/08/16 08:46:26;;;;;;;14.60;11.60;;;29.50;94.90;;;;;;5042852;28;20466;-75
2022/08/16 08:48:54;;;;;;;13.90;12.47;;;29.90;94.50;;;;;;5050155;28;20528;-74
2022/08/16 08:51:24;;;;;;;15.27;12.10;;;30.00;94.00;;;;;;5043390;28;20988;-73
2022/08/16 08:53:51;;;;;;;15.03;13.43;;;30.00;94.10;;;;;;5050178;28;20516;-74
2022/08/16 08:56:19;;;;;;;16.50;13.30;;;30.00;94.30;;;;;;5066808;28;20520;-74
2022/08/16 08:58:46;;;;;;;16.93;11.73;;;29.90;94.30;;;;;;5059103;28;20513;-73
2022/08/16 09:01:13;;;;;;;13.07;11.77;;;30.00;93.80;;;;;;5052729;28;20452;-75
2022/08/16 09:03:42;;;;;;;12.17;11.03;;;29.90;93.60;;;;;;5058506;28;20461;-74
2022/08/16 09:06:09;;;;;;;13.13;11.83;;;30.10;93.70;;;;;;5054946;28;20446;-74
2022/08/16 09:08:38;;;;;;;14.70;13.33;;;30.30;93.60;;;;;;5055105;28;20481;-74
2022/08/16 09:11:06;;;;;;;12.53;11.23;;;30.00;93.40;;;;;;5050774;28;20451;-74
2022/08/16 09:13:33;;;;;;;12.27;11.07;;;30.10;93.40;;;;;;5051291;28;20494;-74
2022/08/16 09:16:00;;;;;;;12.63;11.43;;;30.40;92.60;;;;;;5058549;28;20449;-72
2022/08/16 09:18:28;;;;;;;13.80;12.10;;;29.90;92.80;;;;;;5046399;28;20528;-73
2022/08/16 09:20:59;;;;;;;12.73;11.60;;;29.90;93.60;;;;;;5052085;28;20537;-76
2022/08/16 09:23:30;;;;;;;12.50;11.20;;;29.80;93.60;;;;;;5055812;28;20570;-74
2022/08/16 09:26:01;;;;;;;11.80;10.60;;;29.70;93.10;;;;;;5052688;28;20585;-73
2022/08/16 09:28:28;;;;;;;11.63;10.50;;;29.60;93.60;;;;;;5046055;28;20574;-73
2022/08/16 09:30:56;;;;;;;9.70;8.70;;;29.50;93.50;;;;;;5044266;28;20501;-71
2022/08/16 09:33:23;;;;;;;9.83;8.93;;;29.40;93.30;;;;;;5039553;28;20974;-73
2022/08/16 09:35:50;;;;;;;10.80;9.80;;;29.30;93.50;;;;;;5037592;28;20509;-74
2022/08/16 09:38:17;;;;;;;15.17;9.80;;;29.10;93.80;;;;;;5053183;28;20779;-73
2022/08/16 09:40:47;;;;;;;12.40;9.90;;;29.20;93.70;;;;;;5050216;28;20469;-73
2022/08/16 09:43:19;;;;;;;11.40;10.30;;;29.10;93.60;;;;;;5047805;28;20640;-75
2022/08/16 09:45:46;;;;;;;11.20;10.17;;;29.10;93.90;;;;;;5043947;28;20445;-76
2022/08/16 09:48:15;;;;;;;12.07;10.03;;;29.00;93.70;;;;;;5041946;28;20561;-74
2022/08/16 09:50:43;;;;;;;15.30;9.33;;;28.80;94.30;;;;;;5050578;28;20456;-74
2022/08/16 09:53:14;;;;;;;14.60;10.10;;;28.70;94.80;;;;;;5065134;28;20517;-73
2022/08/16 09:55:42;;;;;;;12.67;9.90;;;28.70;94.40;;;;;;5040917;28;20467;-73
2022/08/16 09:58:09;;;;;;;9.93;8.90;;;28.90;94.60;;;;;;5063650;28;20457;-78
2022/08/16 10:00:38;;;;;;;10.43;8.70;;;28.90;93.90;;;;;;5048890;28;20442;-75
2022/08/16 10:03:05;;;;;;;8.90;8.07;;;28.80;94.30;;;;;;5057356;28;20469;-77
2022/08/16 10:05:36;;;;;;;10.60;9.53;;;28.80;94.40;;;;;;5066041;28;20446;-76
2022/08/16 10:08:04;;;;;;;10.33;8.77;;;28.90;94.20;;;;;;5053665;28;20522;-79
2022/08/16 10:10:31;;;;;;;15.87;9.67;;;28.90;93.90;;;;;;5064832;28;20449;-74
2022/08/16 10:13:13;;;;;;;13.40;9.00;;;29.10;93.50;;;;;;5062042;28;20517;-77
2022/08/16 10:15:45;;;;;;;12.60;10.27;;;29.10;93.10;;;;;;5066338;28;20456;-78
2022/08/16 10:18:15;;;;;;;11.97;8.83;;;29.30;92.80;;;;;;5054024;28;21000;-78
2022/08/16 10:20:46;;;;;;;9.90;8.90;;;29.50;92.10;;;;;;5049894;28;20449;-77
2022/08/16 10:23:15;;;;;;;9.87;8.97;;;29.60;91.80;;;;;;5052063;28;20468;-78
2022/08/16 10:25:45;;;;;;;9.50;8.50;;;29.80;91.40;;;;;;5043946;28;20462;-78
2022/08/16 10:28:13;;;;;;;10.60;9.50;;;30.00;91.10;;;;;;5044405;28;20447;-76
2022/08/16 10:30:42;;;;;;;10.00;9.20;;;30.20;90.80;;;;;;5043745;28;20533;-78
2022/08/16 10:33:10;;;;;;;12.13;7.83;;;30.60;90.50;;;;;;5051204;28;20476;-77
2022/08/16 10:35:38;;;;;;;14.67;9.50;;;30.90;90.20;;;;;;5059225;28;20540;-78
2022/08/16 10:38:05;;;;;;;11.50;8.90;;;31.30;89.40;;;;;;5054212;28;20474;-76
2022/08/16 10:40:38;;;;;;;9.13;8.23;;;31.60;87.80;;;;;;5050156;28;21020;-78
2022/08/16 10:43:05;;;;;;;12.80;7.47;;;31.50;87.40;;;;;;5058603;28;20498;-77
2022/08/16 10:45:33;;;;;;;7.97;7.17;;;31.70;84.80;;;;;;5051076;28;20478;-75
2022/08/16 10:48:01;;;;;;;12.83;8.10;;;32.40;84.40;;;;;;5055455;28;20423;-78
2022/08/16 10:50:29;;;;;;;9.20;7.60;;;32.60;82.90;;;;;;5061071;28;20525;-77
2022/08/16 10:52:57;;;;;;;9.70;8.40;;;32.50;82.70;;;;;;5041259;28;20822;-77
2022/08/16 10:55:24;;;;;;;8.23;7.53;;;32.30;81.60;;;;;;5038301;28;20565;-74
2022/08/16 10:57:53;;;;;;;10.40;6.97;;;32.30;81.50;;;;;;5045562;28;20846;-75
2022/08/16 11:00:20;;;;;;;7.57;6.97;;;32.40;81.90;;;;;;5052654;28;20820;-76
2022/08/16 11:02:48;;;;;;;8.33;7.50;;;32.60;82.30;;;;;;5060080;28;20520;-76
2022/08/16 11:05:18;;;;;;;8.63;7.70;;;32.50;81.40;;;;;;5047933;28;20526;-75
2022/08/16 11:07:48;;;;;;;11.73;7.30;;;32.20;82.20;;;;;;5060303;28;20441;-77
2022/08/16 11:10:18;;;;;;;7.03;6.03;;;32.30;81.00;;;;;;5040851;28;20485;-78
2022/08/16 11:12:45;;;;;;;5.83;5.20;;;32.40;81.30;;;;;;5049517;28;20469;-76
2022/08/16 11:15:13;;;;;;;6.70;6.00;;;32.20;79.50;;;;;;5059097;28;20562;-77
2022/08/16 11:17:43;;;;;;;5.50;4.40;;;32.20;77.70;;;;;;5060355;28;20433;-76
2022/08/16 11:20:12;;;;;;;5.83;5.30;;;32.00;78.30;;;;;;5060175;28;20469;-75
2022/08/16 11:22:41;;;;;;;5.87;5.30;;;32.20;78.00;;;;;;5063060;28;20454;-76
2022/08/16 11:25:09;;;;;;;7.30;5.50;;;32.30;76.20;;;;;;5044161;28;20451;-75
2022/08/16 11:27:36;;;;;;;6.00;4.53;;;32.50;75.00;;;;;;5056611;28;20900;-76
2022/08/16 11:30:05;;;;;;;6.23;5.20;;;32.50;73.50;;;;;;5066542;28;20445;-75
2022/08/16 11:32:32;;;;;;;7.47;5.27;;;32.40;73.60;;;;;;5048361;28;20492;-76
2022/08/16 11:34:59;;;;;;;5.53;5.03;;;32.20;74.30;;;;;;5055478;28;20499;-75
2022/08/16 11:37:26;;;;;;;7.63;4.17;;;32.30;74.60;;;;;;5062426;28;20473;-75
2022/08/16 11:39:54;;;;;;;4.90;4.40;;;32.30;74.60;;;;;;5050239;28;20454;-76
2022/08/16 11:42:21;;;;;;;5.93;5.43;;;32.30;74.10;;;;;;5051927;28;20963;-77
2022/08/16 11:44:48;;;;;;;4.97;4.47;;;32.30;75.10;;;;;;5052988;28;21018;-76
2022/08/16 11:47:17;;;;;;;8.90;5.30;;;32.10;74.90;;;;;;5038414;28;20508;-76
2022/08/16 11:49:44;;;;;;;6.03;4.30;;;31.90;74.80;;;;;;5055586;28;20496;-77
2022/08/16 11:52:11;;;;;;;5.20;4.63;;;32.00;74.00;;;;;;5049956;28;20471;-75
2022/08/16 11:54:39;;;;;;;8.43;5.00;;;32.00;72.60;;;;;;5040822;28;20865;-76
2022/08/16 11:57:09;;;;;;;6.37;5.13;;;31.80;74.30;;;;;;5051521;28;20444;-78
2022/08/16 11:59:37;;;;;;;7.50;5.20;;;31.90;74.00;;;;;;5055301;28;20441;-75
2022/08/16 12:02:05;;;;;;;6.53;4.80;;;32.20;73.40;;;;;;5046261;28;20455;-75
2022/08/16 12:04:32;;;;;;;6.23;4.70;;;32.20;74.20;;;;;;5050943;28;20466;-74
2022/08/16 12:06:59;;;;;;;4.83;4.43;;;31.80;73.20;;;;;;5048548;28;20451;-76
2022/08/16 12:09:26;;;;;;;4.80;4.40;;;31.80;72.90;;;;;;5048901;28;20834;-77
2022/08/16 12:11:55;;;;;;;4.67;4.13;;;31.50;74.20;;;;;;5051242;28;21014;-76
2022/08/16 12:14:24;;;;;;;5.00;4.50;;;31.20;75.10;;;;;;5045607;28;20509;-77
2022/08/16 12:16:56;;;;;;;5.70;4.60;;;31.30;74.20;;;;;;5052423;28;20994;-76
2022/08/16 12:19:23;;;;;;;5.33;4.40;;;31.40;74.10;;;;;;5050135;28;20442;-77
2022/08/16 12:21:50;;;;;;;8.53;5.03;;;31.40;74.20;;;;;;5048764;28;20455;-77
2022/08/16 12:24:17;;;;;;;5.50;4.73;;;31.40;73.80;;;;;;5054805;28;20462;-76
2022/08/16 12:26:45;;;;;;;5.00;4.50;;;31.40;73.90;;;;;;5052554;28;20459;-75
2022/08/16 12:29:12;;;;;;;4.60;4.20;;;31.40;73.60;;;;;;5038767;28;20431;-76
2022/08/16 12:31:41;;;;;;;5.60;4.50;;;31.40;73.80;;;;;;5055994;28;20433;-75
2022/08/16 12:34:08;;;;;;;5.30;4.20;;;31.40;74.70;;;;;;5061081;28;20491;-76
2022/08/16 12:36:36;;;;;;;5.17;4.67;;;31.30;73.50;;;;;;5053097;28;20493;-75